createdAt,value
2023-03-24T00:01:40.872Z,30.30
2023-03-24T00:04:10.262Z,32.00
2023-03-24T00:06:39.782Z,29.80
2023-03-24T00:09:08.926Z,33.20
2023-03-24T00:11:38.985Z,30.40
2023-03-24T00:14:11.665Z,30.80
2023-03-24T00:16:42.197Z,30.40
2023-03-24T00:19:14.282Z,31.40
2023-03-24T00:21:44.902Z,28.70
2023-03-24T00:24:14.595Z,32.10
2023-03-24T00:26:43.786Z,31.20
2023-03-24T00:29:13.160Z,32.30
2023-03-24T00:31:42.851Z,27.90
2023-03-24T00:34:13.124Z,30.80
2023-03-24T00:36:42.280Z,32.60
2023-03-24T00:39:11.674Z,31.70
2023-03-24T00:41:44.681Z,30.70
2023-03-24T00:44:17.464Z,31.90
2023-03-24T00:46:55.536Z,30.80
2023-03-24T00:49:41.922Z,29.50
2023-03-24T00:52:12.696Z,33.10
2023-03-24T00:54:42.846Z,31.40
2023-03-24T00:57:14.188Z,30.00
2023-03-24T00:59:48.799Z,30.80
2023-03-24T01:02:21.720Z,29.80
2023-03-24T01:04:55.835Z,32.90
2023-03-24T01:07:27.691Z,29.50
2023-03-24T01:09:58.123Z,29.10
2023-03-24T01:12:31.458Z,27.80
2023-03-24T01:15:05.158Z,28.30
2023-03-24T01:17:34.556Z,31.50
2023-03-24T01:20:07.503Z,29.00
2023-03-24T01:22:39.382Z,30.80
2023-03-24T01:25:11.861Z,26.90
2023-03-24T01:27:41.198Z,30.80
2023-03-24T01:30:14.293Z,30.70
2023-03-24T01:32:47.064Z,29.70
2023-03-24T01:35:16.850Z,30.00
2023-03-24T01:37:45.996Z,31.50
2023-03-24T01:40:19.447Z,30.50
2023-03-24T01:42:48.950Z,28.60
2023-03-24T01:45:58.264Z,27.20
2023-03-24T01:48:33.927Z,28.90
2023-03-24T01:51:07.354Z,29.40
2023-03-24T01:53:42.414Z,29.10
2023-03-24T01:56:12.288Z,28.20
2023-03-24T01:58:48.342Z,29.30
2023-03-24T02:01:19.014Z,29.20
2023-03-24T02:03:49.125Z,30.00
2023-03-24T02:06:19.673Z,29.90
2023-03-24T02:08:54.498Z,26.80
2023-03-24T02:11:30.678Z,27.40
2023-03-24T02:33:28.333Z,30.00
2023-03-24T02:36:28.041Z,29.70
2023-03-24T02:39:32.704Z,30.60
2023-03-24T02:42:12.012Z,32.70
2023-03-24T02:44:48.146Z,31.50
2023-03-24T02:47:24.373Z,30.10
2023-03-24T02:50:03.988Z,27.40
2023-03-24T02:55:12.472Z,29.80
2023-03-24T02:57:48.826Z,33.40
2023-03-24T03:00:26.502Z,30.40
2023-03-24T03:03:02.311Z,27.90
2023-03-24T03:05:37.178Z,28.70
2023-03-24T03:08:09.996Z,29.30
2023-03-24T03:10:43.257Z,29.60
2023-03-24T03:13:21.208Z,28.90
2023-03-24T03:15:55.063Z,29.80
2023-03-24T03:18:32.931Z,29.40
2023-03-24T03:21:06.924Z,26.00
2023-03-24T03:23:38.646Z,30.70
2023-03-24T03:26:13.083Z,27.20
2023-03-24T03:28:49.300Z,31.40
2023-03-24T03:31:23.847Z,27.10
2023-03-24T03:33:58.735Z,29.00
2023-03-24T03:36:33.429Z,28.00
2023-03-24T03:39:10.585Z,25.80
2023-03-24T03:41:40.421Z,30.60
2023-03-24T03:44:10.152Z,29.70
2023-03-24T03:46:39.569Z,27.60
2023-03-24T03:49:09.721Z,28.20
2023-03-24T03:51:39.368Z,27.80
2023-03-24T03:54:11.620Z,29.20
2023-03-24T03:56:41.990Z,29.30
2023-03-24T03:59:26.963Z,26.90
2023-03-24T04:01:57.852Z,28.20
2023-03-24T04:04:59.751Z,26.80
2023-03-24T04:07:42.241Z,24.10
2023-03-24T04:10:21.240Z,28.80
2023-03-24T04:13:07.587Z,27.20
2023-03-24T04:15:42.948Z,27.40
2023-03-24T04:18:31.788Z,30.80
2023-03-24T04:21:27.743Z,26.00
2023-03-24T04:24:13.696Z,30.10
2023-03-24T04:26:53.948Z,33.00
2023-03-24T04:29:36.500Z,30.00
2023-03-24T04:32:18.987Z,30.40
2023-03-24T04:34:53.771Z,28.10
2023-03-24T04:37:26.744Z,31.50
2023-03-24T04:39:59.590Z,33.50
2023-03-24T04:42:35.496Z,29.60
2023-03-24T04:45:05.981Z,30.60
2023-03-24T04:47:49.388Z,28.60
2023-03-24T04:50:30.306Z,31.20
2023-03-24T04:53:01.320Z,30.50
2023-03-24T04:55:50.922Z,32.50
2023-03-24T04:58:31.780Z,28.90
2023-03-24T05:01:02.749Z,28.40
2023-03-24T05:03:31.943Z,29.00
2023-03-24T05:06:01.092Z,29.20
2023-03-24T05:08:30.468Z,30.80
2023-03-24T05:11:01.095Z,32.40
2023-03-24T05:13:32.044Z,28.90
2023-03-24T05:16:01.525Z,33.60
2023-03-24T05:18:30.889Z,29.00
2023-03-24T05:21:00.636Z,32.30
2023-03-24T05:23:30.213Z,31.70
2023-03-24T05:26:00.185Z,32.00
2023-03-24T05:28:30.551Z,30.90
2023-03-24T05:31:01.034Z,27.60
2023-03-24T05:33:30.897Z,30.40
2023-03-24T05:36:00.430Z,29.40
2023-03-24T05:38:37.604Z,28.60
2023-03-24T05:41:08.879Z,30.50
2023-03-24T05:43:38.084Z,29.50
2023-03-24T05:46:08.325Z,29.60
2023-03-24T05:48:37.539Z,31.10
2023-03-24T05:51:07.992Z,30.60
2023-03-24T05:53:40.213Z,30.70
2023-03-24T05:56:15.030Z,29.60
2023-03-24T05:58:45.496Z,26.00
2023-03-24T06:01:18.028Z,29.80
2023-03-24T06:03:48.985Z,28.20
2023-03-24T06:06:18.680Z,29.20
2023-03-24T06:08:47.933Z,27.10
2023-03-24T06:11:17.066Z,26.90
2023-03-24T06:13:46.585Z,28.30
2023-03-24T06:16:18.358Z,27.30
2023-03-24T06:18:51.944Z,30.40
2023-03-24T06:21:21.833Z,28.50
2023-03-24T06:23:51.686Z,28.30
2023-03-24T06:26:20.753Z,27.00
2023-03-24T06:28:51.517Z,27.40
2023-03-24T06:31:21.782Z,28.30
2023-03-24T06:33:52.526Z,25.10
2023-03-24T06:36:23.124Z,24.70
2023-03-24T06:38:53.865Z,28.80
2023-03-24T06:41:35.796Z,29.80
2023-03-24T06:44:05.079Z,25.60
2023-03-24T06:46:34.439Z,28.50
2023-03-24T06:49:04.369Z,24.90
2023-03-24T06:51:33.736Z,26.50
2023-03-24T06:54:03.605Z,27.60
2023-03-24T06:56:34.422Z,23.40
2023-03-24T06:59:04.010Z,27.10
2023-03-24T07:01:34.581Z,28.30
2023-03-24T07:04:04.125Z,23.10
2023-03-24T07:06:40.420Z,24.70
2023-03-24T07:09:13.292Z,24.70
2023-03-24T07:11:45.973Z,25.00
2023-03-24T07:14:15.471Z,25.20
2023-03-24T07:16:44.817Z,27.00
2023-03-24T07:19:13.869Z,24.40
2023-03-24T07:21:43.749Z,26.90
2023-03-24T07:24:12.950Z,27.40
2023-03-24T07:26:42.093Z,26.10
2023-03-24T07:29:13.344Z,23.10
2023-03-24T07:31:42.626Z,21.70
2023-03-24T07:34:11.729Z,22.20
2023-03-24T07:36:41.029Z,24.90
2023-03-24T07:39:10.243Z,24.40
2023-03-24T07:41:39.416Z,24.00
2023-03-24T07:44:09.223Z,26.50
2023-03-24T07:46:38.556Z,25.00
2023-03-24T07:49:18.221Z,23.80
2023-03-24T07:51:48.728Z,25.80
2023-03-24T07:54:18.214Z,25.70
2023-03-24T07:56:47.348Z,26.80
2023-03-24T07:59:17.340Z,26.30
2023-03-24T08:01:51.317Z,26.40
2023-03-24T08:04:23.918Z,25.20
2023-03-24T08:06:53.520Z,24.00
2023-03-24T08:09:23.649Z,25.80
2023-03-24T08:11:52.995Z,26.70
2023-03-24T08:14:22.967Z,23.40
2023-03-24T08:16:53.233Z,25.80
2023-03-24T08:19:22.775Z,23.00
2023-03-24T08:21:51.914Z,23.90
2023-03-24T08:24:20.873Z,23.70
2023-03-24T08:26:50.198Z,24.60
2023-03-24T08:29:19.180Z,23.60
2023-03-24T08:31:48.380Z,26.20
2023-03-24T08:34:18.678Z,26.30
2023-03-24T08:36:48.469Z,22.30
2023-03-24T08:39:17.687Z,24.60
2023-03-24T08:41:49.593Z,23.00
2023-03-24T08:44:18.856Z,24.20
2023-03-24T08:46:48.272Z,23.50
2023-03-24T08:49:18.692Z,25.60
2023-03-24T08:51:47.981Z,23.40
2023-03-24T08:54:17.302Z,24.90
2023-03-24T08:56:46.936Z,23.90
2023-03-24T08:59:16.367Z,23.20
2023-03-24T09:01:45.535Z,23.50
2023-03-24T09:04:15.143Z,22.60
2023-03-24T09:06:44.426Z,21.10
2023-03-24T09:09:13.733Z,23.70
2023-03-24T09:11:42.971Z,21.70
2023-03-24T09:14:12.195Z,18.90
2023-03-24T09:16:43.420Z,21.40
2023-03-24T09:19:12.897Z,21.10
2023-03-24T09:21:42.588Z,20.60
2023-03-24T09:24:11.719Z,20.60
2023-03-24T09:26:41.206Z,19.40
2023-03-24T09:29:10.422Z,21.50
2023-03-24T09:31:39.599Z,18.50
2023-03-24T09:34:09.380Z,22.30
2023-03-24T09:36:38.400Z,22.00
2023-03-24T09:39:08.243Z,20.10
2023-03-24T09:41:37.931Z,20.00
2023-03-24T09:44:14.062Z,19.90
2023-03-24T09:46:47.712Z,19.50
2023-03-24T09:49:24.800Z,20.10
2023-03-24T09:51:57.187Z,19.20
2023-03-24T09:54:37.676Z,18.30
2023-03-24T09:57:16.643Z,16.80
2023-03-24T09:59:45.801Z,17.10
2023-03-24T10:02:18.206Z,17.80
2023-03-24T10:04:47.908Z,16.50
2023-03-24T10:07:25.150Z,19.80
2023-03-24T10:09:59.473Z,16.20
2023-03-24T10:12:36.886Z,14.90
2023-03-24T10:15:24.343Z,16.60
2023-03-24T10:18:19.439Z,16.60
2023-03-24T10:20:54.745Z,15.30
2023-03-24T10:23:33.112Z,15.90
2023-03-24T10:26:09.388Z,14.10
2023-03-24T10:28:45.037Z,13.50
2023-03-24T10:31:17.626Z,11.90
2023-03-24T10:33:49.227Z,12.90
2023-03-24T10:36:20.943Z,13.30
2023-03-24T10:38:50.562Z,13.90
2023-03-24T10:41:21.965Z,14.00
2023-03-24T10:43:52.716Z,12.70
2023-03-24T10:46:25.614Z,12.30
2023-03-24T10:49:08.143Z,11.80
2023-03-24T10:51:37.911Z,11.30
2023-03-24T10:54:16.801Z,12.60
2023-03-24T10:56:48.287Z,13.20
2023-03-24T10:59:22.814Z,12.40
2023-03-24T11:01:56.476Z,13.30
2023-03-24T11:04:26.660Z,12.10
2023-03-24T11:07:15.379Z,10.90
2023-03-24T11:09:46.478Z,13.10
2023-03-24T11:12:23.572Z,12.00
2023-03-24T11:15:10.458Z,12.40
2023-03-24T11:17:48.527Z,13.30
2023-03-24T11:20:37.655Z,12.00
2023-03-24T11:23:11.387Z,12.20
2023-03-24T11:25:42.343Z,8.80
2023-03-24T11:28:18.221Z,10.40
2023-03-24T11:30:51.143Z,9.50
2023-03-24T11:33:35.541Z,10.30
2023-03-24T11:36:31.019Z,12.20
2023-03-24T11:39:04.337Z,14.00
2023-03-24T11:41:42.107Z,11.10
2023-03-24T11:44:23.080Z,12.30
2023-03-24T11:46:57.135Z,12.80
2023-03-24T11:49:34.833Z,12.40
2023-03-24T11:52:09.916Z,12.70
2023-03-24T11:54:39.984Z,10.60
2023-03-24T11:57:17.243Z,10.10
2023-03-24T11:59:57.401Z,9.70
2023-03-24T12:02:43.974Z,10.80
2023-03-24T12:05:26.749Z,9.40
2023-03-24T12:08:18.205Z,8.70
2023-03-24T12:11:01.006Z,9.30
2023-03-24T12:13:37.432Z,9.30
2023-03-24T12:16:32.645Z,9.90
2023-03-24T12:19:36.729Z,9.80
2023-03-24T12:22:20.608Z,9.40
2023-03-24T12:25:18.575Z,12.10
2023-03-24T12:27:56.472Z,10.70
2023-03-24T12:30:31.604Z,8.80
2023-03-24T12:33:14.972Z,8.00
2023-03-24T12:35:56.536Z,10.20
2023-03-24T12:38:41.113Z,9.30
2023-03-24T12:41:31.173Z,7.10
2023-03-24T12:44:17.671Z,7.10
2023-03-24T12:46:54.172Z,7.30
2023-03-24T12:49:46.901Z,8.50
2023-03-24T12:52:32.528Z,7.00
2023-03-24T12:55:08.880Z,7.30
2023-03-24T12:57:42.812Z,7.90
2023-03-24T13:00:18.544Z,6.50
2023-03-24T13:02:52.209Z,6.30
2023-03-24T13:05:27.036Z,7.80
2023-03-24T13:08:02.650Z,6.60
2023-03-24T13:10:39.855Z,7.30
2023-03-24T13:13:17.258Z,5.70
2023-03-24T13:15:49.909Z,6.50
2023-03-24T13:18:28.338Z,5.90
2023-03-24T13:21:03.409Z,6.70
2023-03-24T13:23:40.754Z,8.10
2023-03-24T13:26:18.862Z,8.20
2023-03-24T13:29:01.080Z,7.70
2023-03-24T13:31:36.625Z,8.90
2023-03-24T13:34:13.162Z,6.00
2023-03-24T13:36:49.001Z,6.90
2023-03-24T13:39:21.567Z,5.10
2023-03-24T13:41:53.552Z,7.00
2023-03-24T13:44:28.455Z,7.30
2023-03-24T13:47:16.172Z,6.40
2023-03-24T13:49:54.002Z,8.90
2023-03-24T13:52:31.590Z,6.50
2023-03-24T13:55:08.518Z,5.70
2023-03-24T13:57:41.902Z,7.30
2023-03-24T14:00:22.731Z,5.60
2023-03-24T14:02:54.666Z,7.50
2023-03-24T14:06:02.229Z,6.60
2023-03-24T14:08:55.920Z,5.10
2023-03-24T14:12:08.492Z,5.70
2023-03-24T14:15:12.748Z,5.10
2023-03-24T14:17:45.484Z,6.60
2023-03-24T14:20:32.542Z,5.30
2023-03-24T14:23:04.166Z,6.30
2023-03-24T14:25:36.261Z,12.30
2023-03-24T14:28:22.971Z,5.50
2023-03-24T14:31:09.392Z,8.00
2023-03-24T14:33:39.288Z,5.60
2023-03-24T14:36:12.460Z,5.70
2023-03-24T14:38:44.747Z,6.00
2023-03-24T14:41:23.252Z,5.60
2023-03-24T14:43:58.983Z,5.80
2023-03-24T14:46:41.373Z,7.40
2023-03-24T14:49:24.561Z,7.20
2023-03-24T14:52:02.027Z,6.50
2023-03-24T14:54:38.034Z,7.00
2023-03-24T14:57:08.934Z,6.20
2023-03-24T14:59:47.038Z,6.40
2023-03-24T15:02:28.516Z,6.80
2023-03-24T15:05:22.883Z,6.20
2023-03-24T15:08:15.352Z,6.20
2023-03-24T15:10:49.857Z,5.50
2023-03-24T15:13:32.225Z,5.20
2023-03-24T15:16:05.202Z,4.50
2023-03-24T15:18:34.845Z,6.50
2023-03-24T15:21:15.848Z,6.60
2023-03-24T15:23:49.017Z,5.30
2023-03-24T15:26:22.226Z,5.50
2023-03-24T15:28:59.926Z,4.70
2023-03-24T15:31:31.652Z,6.50
2023-03-24T15:34:08.406Z,6.50
2023-03-24T15:36:45.080Z,5.60
2023-03-24T15:39:24.816Z,7.90
2023-03-24T15:41:56.321Z,6.30
2023-03-24T15:44:28.426Z,6.00
2023-03-24T15:46:59.676Z,10.40
2023-03-24T15:49:34.856Z,6.80
2023-03-24T15:52:22.510Z,6.90
2023-03-24T15:54:54.526Z,7.00
2023-03-24T15:57:25.068Z,9.70
2023-03-24T16:00:12.567Z,9.30
2023-03-24T16:02:51.802Z,8.60
2023-03-24T16:05:23.822Z,6.90
2023-03-24T16:08:03.177Z,8.70
2023-03-24T16:10:39.420Z,6.60
2023-03-24T16:13:20.410Z,7.30
2023-03-24T16:15:58.417Z,7.50
2023-03-24T16:18:33.239Z,11.00
2023-03-24T16:21:09.992Z,7.80
2023-03-24T16:23:41.795Z,9.50
2023-03-24T16:26:13.857Z,7.70
2023-03-24T16:28:43.256Z,8.40
2023-03-24T16:31:25.458Z,7.70
2023-03-24T16:33:59.849Z,8.30
2023-03-24T16:36:29.430Z,7.30
2023-03-24T16:39:01.859Z,9.30
2023-03-24T16:41:35.120Z,8.80
2023-03-24T16:44:05.207Z,8.70
2023-03-24T16:46:36.460Z,14.10
2023-03-24T16:49:08.220Z,8.70
2023-03-24T16:51:37.541Z,8.50
2023-03-24T16:54:08.700Z,12.40
2023-03-24T16:56:41.864Z,12.80
2023-03-24T16:59:14.262Z,11.20
2023-03-24T17:01:45.343Z,8.20
2023-03-24T17:04:17.379Z,11.40
2023-03-24T17:06:48.564Z,7.60
2023-03-24T17:09:18.476Z,9.30
2023-03-24T17:11:51.355Z,7.70
2023-03-24T17:14:21.121Z,7.30
2023-03-24T17:16:52.113Z,7.50
2023-03-24T17:19:23.446Z,9.10
2023-03-24T17:21:58.188Z,11.30
2023-03-24T17:24:28.158Z,11.40
2023-03-24T17:26:57.431Z,9.50
2023-03-24T17:29:26.852Z,9.40
2023-03-24T17:31:56.605Z,7.60
2023-03-24T17:34:25.636Z,9.90
2023-03-24T17:36:55.175Z,12.40
2023-03-24T17:39:24.818Z,11.90
2023-03-24T17:41:57.146Z,11.80
2023-03-24T17:44:26.986Z,10.20
2023-03-24T17:46:56.713Z,13.50
2023-03-24T17:49:28.130Z,10.70
2023-03-24T17:51:58.104Z,12.70
2023-03-24T17:54:27.542Z,23.40
2023-03-24T17:57:11.061Z,21.70
2023-03-24T17:59:47.456Z,14.10
2023-03-24T18:02:20.804Z,12.50
2023-03-24T18:04:58.650Z,11.70
2023-03-24T18:07:28.406Z,13.20
2023-03-24T18:09:57.819Z,11.70
2023-03-24T18:12:27.962Z,12.50
2023-03-24T18:14:57.177Z,11.30
2023-03-24T18:17:26.904Z,12.10
2023-03-24T18:19:59.030Z,12.30
2023-03-24T18:22:28.609Z,11.70
2023-03-24T18:24:57.836Z,12.80
2023-03-24T18:27:27.614Z,12.10
2023-03-24T18:29:57.169Z,16.90
2023-03-24T18:32:28.354Z,20.00
2023-03-24T18:35:00.268Z,15.30
2023-03-24T18:37:34.704Z,16.00
2023-03-24T18:40:07.911Z,16.10
2023-03-24T18:42:38.510Z,14.00
2023-03-24T18:45:16.715Z,12.30
2023-03-24T18:47:47.221Z,12.00
2023-03-24T18:50:17.765Z,15.20
2023-03-24T18:52:49.035Z,21.60
2023-03-24T18:55:20.169Z,17.00
2023-03-24T18:57:50.316Z,15.80
2023-03-24T19:00:21.637Z,17.50
2023-03-24T19:02:51.840Z,18.30
2023-03-24T19:05:21.744Z,16.30
2023-03-24T19:07:51.763Z,15.00
2023-03-24T19:10:21.907Z,13.70
2023-03-24T19:12:51.374Z,16.70
2023-03-24T19:15:21.288Z,19.60
2023-03-24T19:17:50.877Z,17.70
2023-03-24T19:20:20.816Z,14.60
2023-03-24T19:22:50.225Z,15.80
2023-03-24T19:25:19.744Z,17.10
2023-03-24T19:27:49.895Z,16.40
2023-03-24T19:30:19.885Z,20.50
2023-03-24T19:32:49.918Z,21.60
2023-03-24T19:35:19.418Z,17.40
2023-03-24T19:37:49.584Z,17.50
2023-03-24T19:40:19.044Z,17.40
2023-03-24T19:42:48.371Z,15.70
2023-03-24T19:45:19.259Z,16.20
2023-03-24T19:47:48.765Z,16.50
2023-03-24T19:50:18.884Z,18.70
2023-03-24T19:52:48.005Z,17.60
2023-03-24T19:55:18.699Z,19.00
2023-03-24T19:57:48.532Z,21.60
2023-03-24T20:00:19.438Z,15.20
2023-03-24T20:02:49.914Z,14.90
2023-03-24T20:05:19.368Z,14.90
2023-03-24T20:07:49.040Z,15.60
2023-03-24T20:10:20.862Z,17.10
2023-03-24T20:12:55.247Z,15.60
2023-03-24T20:15:33.208Z,19.50
2023-03-24T20:18:03.684Z,15.30
2023-03-24T20:20:33.867Z,16.00
2023-03-24T20:23:03.926Z,19.70
2023-03-24T20:25:34.199Z,22.40
2023-03-24T20:28:04.389Z,19.90
2023-03-24T20:30:34.474Z,18.30
2023-03-24T20:33:04.915Z,17.20
2023-03-24T20:35:36.500Z,19.50
2023-03-24T20:38:06.788Z,17.00
2023-03-24T20:40:36.886Z,19.60
2023-03-24T20:43:06.975Z,16.50
2023-03-24T20:45:37.364Z,20.80
2023-03-24T20:48:08.270Z,18.50
2023-03-24T20:50:37.613Z,27.30
2023-03-24T20:53:08.565Z,19.30
2023-03-24T20:55:38.316Z,21.40
2023-03-24T20:58:08.113Z,24.60
2023-03-24T21:00:41.335Z,34.60
2023-03-24T21:03:11.880Z,33.30
2023-03-24T21:05:41.610Z,40.30
2023-03-24T21:08:11.001Z,45.10
2023-03-24T21:10:40.503Z,54.30
2023-03-24T21:13:10.029Z,57.30
2023-03-24T21:15:47.574Z,64.30
2023-03-24T21:18:17.309Z,61.40
2023-03-24T21:20:55.013Z,61.00
2023-03-24T21:23:27.043Z,64.60
2023-03-24T21:25:56.180Z,59.40
2023-03-24T21:28:27.920Z,58.30
2023-03-24T21:30:57.934Z,65.10
2023-03-24T21:33:27.539Z,62.90
2023-03-24T21:35:57.824Z,61.70
2023-03-24T21:38:28.169Z,65.90
2023-03-24T21:41:00.256Z,67.20
2023-03-24T21:43:30.144Z,61.90
2023-03-24T21:46:14.343Z,62.00
2023-03-24T21:48:49.579Z,61.80
2023-03-24T21:51:23.487Z,75.30
2023-03-24T21:53:54.895Z,64.30
2023-03-24T21:56:24.161Z,56.90
2023-03-24T21:58:54.502Z,54.40
2023-03-24T22:01:24.647Z,60.40
2023-03-24T22:03:55.236Z,47.40
2023-03-24T22:06:24.796Z,51.80
2023-03-24T22:08:57.658Z,47.70
2023-03-24T22:11:27.224Z,43.30
2023-03-24T22:13:56.541Z,45.10
2023-03-24T22:16:25.666Z,41.50
2023-03-24T22:18:56.724Z,42.10
2023-03-24T22:21:26.938Z,42.60
2023-03-24T22:23:56.624Z,40.10
2023-03-24T22:26:26.245Z,40.50
2023-03-24T22:28:55.977Z,40.60
2023-03-24T22:31:25.795Z,37.70
2023-03-24T22:33:55.777Z,38.80
2023-03-24T22:36:25.618Z,38.50
2023-03-24T22:38:55.234Z,38.50
2023-03-24T22:41:24.594Z,47.40
2023-03-24T22:43:54.716Z,43.40
2023-03-24T22:46:25.608Z,46.30
2023-03-24T22:48:56.072Z,32.60
2023-03-24T22:51:25.476Z,35.90
2023-03-24T22:53:55.086Z,30.10
2023-03-24T22:56:24.929Z,34.90
2023-03-24T22:58:55.021Z,31.20
2023-03-24T23:01:26.289Z,35.80
2023-03-24T23:03:55.726Z,34.70
2023-03-24T23:06:26.950Z,40.30
2023-03-24T23:08:56.512Z,42.10
2023-03-24T23:11:26.133Z,39.10
2023-03-24T23:14:04.691Z,41.20
2023-03-24T23:19:04.821Z,39.90
2023-03-24T23:21:34.246Z,41.50
2023-03-24T23:24:03.749Z,42.10
2023-03-24T23:26:33.512Z,43.30
2023-03-24T23:29:02.939Z,45.60
2023-03-24T23:31:32.418Z,41.00
2023-03-24T23:34:04.369Z,49.90
2023-03-24T23:36:50.548Z,47.40
2023-03-24T23:39:20.509Z,47.90
2023-03-24T23:41:49.995Z,47.20
2023-03-24T23:44:19.694Z,44.40
2023-03-24T23:46:48.898Z,41.30
2023-03-24T23:49:18.491Z,43.50
2023-03-24T23:51:47.696Z,40.20
2023-03-24T23:54:17.104Z,40.70
2023-03-24T23:56:46.999Z,39.00
2023-03-24T23:59:16.337Z,39.00
